Terminal Aerodrome Forecast
Issued by NWS

Home | Current Version | Previous Version | Text Only | Print | Product List | Glossary On
Versions: 1 2 3 4 5 6 7 8 9 10 11 12 13 14 15 16 17 18 19 20
000
FTUS43 KLSX 072320
TAFCPS
TAF
KCPS 072320Z 0800/0824 04008KT P6SM -RA SCT009 OVC015
      TEMPO 0800/0802 4SM -RA BR BKN009
     FM081200 09006KT 5SM -SHRA BR OVC010
     FM081800 09014KT 3SM -SHRA BR VCTS OVC015CB=

USA.gov is the U.S. government's official web portal to all federal, state and local government web resources and services.